sensor_id;sensor_type;location;lat;lon;timestamp;temperature;humidity
32660;DHT22;19064;47.912;12.308;2024-03-06T00:00:25;6.50;99.90
32660;DHT22;19064;47.912;12.308;2024-03-06T00:02:52;6.30;99.90
32660;DHT22;19064;47.912;12.308;2024-03-06T00:05:18;6.30;99.90
32660;DHT22;19064;47.912;12.308;2024-03-06T00:07:45;6.40;99.90
32660;DHT22;19064;47.912;12.308;2024-03-06T00:10:13;6.50;99.90
32660;DHT22;19064;47.912;12.308;2024-03-06T00:12:41;6.60;99.90
32660;DHT22;19064;47.912;12.308;2024-03-06T00:15:08;6.60;99.90
32660;DHT22;19064;47.912;12.308;2024-03-06T00:17:35;6.50;99.90
32660;DHT22;19064;47.912;12.308;2024-03-06T00:20:02;6.50;99.90
32660;DHT22;19064;47.912;12.308;2024-03-06T00:22:30;6.60;99.90
32660;DHT22;19064;47.912;12.308;2024-03-06T00:24:57;6.50;99.90
32660;DHT22;19064;47.912;12.308;2024-03-06T00:27:25;6.40;99.90
32660;DHT22;19064;47.912;12.308;2024-03-06T00:29:52;6.40;99.90
32660;DHT22;19064;47.912;12.308;2024-03-06T00:32:18;6.40;99.90
32660;DHT22;19064;47.912;12.308;2024-03-06T00:34:45;6.40;99.90
32660;DHT22;19064;47.912;12.308;2024-03-06T00:37:12;6.40;99.90
32660;DHT22;19064;47.912;12.308;2024-03-06T00:39:38;6.30;99.90
32660;DHT22;19064;47.912;12.308;2024-03-06T00:42:05;6.30;99.90
32660;DHT22;19064;47.912;12.308;2024-03-06T00:44:35;6.30;99.90
32660;DHT22;19064;47.912;12.308;2024-03-06T00:47:03;6.30;99.90
32660;DHT22;19064;47.912;12.308;2024-03-06T00:49:29;6.30;99.90
32660;DHT22;19064;47.912;12.308;2024-03-06T00:51:56;6.20;99.90
32660;DHT22;19064;47.912;12.308;2024-03-06T00:54:23;6.20;99.90
32660;DHT22;19064;47.912;12.308;2024-03-06T00:56:50;6.20;99.90
32660;DHT22;19064;47.912;12.308;2024-03-06T00:59:16;6.10;99.90
32660;DHT22;19064;47.912;12.308;2024-03-06T01:01:44;6.10;99.90
32660;DHT22;19064;47.912;12.308;2024-03-06T01:04:12;6.10;99.90
32660;DHT22;19064;47.912;12.308;2024-03-06T01:06:38;5.90;99.90
32660;DHT22;19064;47.912;12.308;2024-03-06T01:09:05;5.90;99.90
32660;DHT22;19064;47.912;12.308;2024-03-06T01:11:32;5.80;99.90
32660;DHT22;19064;47.912;12.308;2024-03-06T01:13:59;5.80;99.90
32660;DHT22;19064;47.912;12.308;2024-03-06T01:16:26;5.70;99.90
32660;DHT22;19064;47.912;12.308;2024-03-06T01:18:54;5.60;99.90
32660;DHT22;19064;47.912;12.308;2024-03-06T01:21:20;5.60;99.90
32660;DHT22;19064;47.912;12.308;2024-03-06T01:23:47;5.50;99.90
32660;DHT22;19064;47.912;12.308;2024-03-06T01:26:14;5.50;99.90
32660;DHT22;19064;47.912;12.308;2024-03-06T01:28:40;5.50;99.90
32660;DHT22;19064;47.912;12.308;2024-03-06T01:31:07;5.50;99.90
32660;DHT22;19064;47.912;12.308;2024-03-06T01:33:34;5.50;99.90
32660;DHT22;19064;47.912;12.308;2024-03-06T01:36:02;5.40;99.90
32660;DHT22;19064;47.912;12.308;2024-03-06T01:38:29;5.50;99.90
32660;DHT22;19064;47.912;12.308;2024-03-06T01:40:56;5.50;99.90
32660;DHT22;19064;47.912;12.308;2024-03-06T01:43:24;5.50;99.90
32660;DHT22;19064;47.912;12.308;2024-03-06T01:45:52;5.40;99.90
32660;DHT22;19064;47.912;12.308;2024-03-06T01:48:21;5.40;99.90
32660;DHT22;19064;47.912;12.308;2024-03-06T01:50:51;5.40;99.90
32660;DHT22;19064;47.912;12.308;2024-03-06T01:53:20;5.30;99.90
32660;DHT22;19064;47.912;12.308;2024-03-06T01:55:48;5.40;99.90
32660;DHT22;19064;47.912;12.308;2024-03-06T01:58:15;5.40;99.90
32660;DHT22;19064;47.912;12.308;2024-03-06T02:00:41;5.40;99.90
32660;DHT22;19064;47.912;12.308;2024-03-06T02:03:08;5.30;99.90
32660;DHT22;19064;47.912;12.308;2024-03-06T02:05:36;5.30;99.90
32660;DHT22;19064;47.912;12.308;2024-03-06T02:08:04;5.20;99.90
32660;DHT22;19064;47.912;12.308;2024-03-06T02:10:34;5.30;99.90
32660;DHT22;19064;47.912;12.308;2024-03-06T02:13:01;5.20;99.90
32660;DHT22;19064;47.912;12.308;2024-03-06T02:15:29;5.20;99.90
32660;DHT22;19064;47.912;12.308;2024-03-06T02:17:56;5.10;99.90
32660;DHT22;19064;47.912;12.308;2024-03-06T02:20:24;5.10;99.90
32660;DHT22;19064;47.912;12.308;2024-03-06T02:22:51;5.10;99.90
32660;DHT22;19064;47.912;12.308;2024-03-06T02:25:18;5.10;99.90
32660;DHT22;19064;47.912;12.308;2024-03-06T02:27:45;5.00;99.90
32660;DHT22;19064;47.912;12.308;2024-03-06T02:30:13;5.00;99.90
32660;DHT22;19064;47.912;12.308;2024-03-06T02:32:40;5.00;99.90
32660;DHT22;19064;47.912;12.308;2024-03-06T02:35:09;4.90;99.90
32660;DHT22;19064;47.912;12.308;2024-03-06T02:37:37;5.00;99.90
32660;DHT22;19064;47.912;12.308;2024-03-06T02:40:05;5.00;99.90
32660;DHT22;19064;47.912;12.308;2024-03-06T02:42:35;5.00;99.90
32660;DHT22;19064;47.912;12.308;2024-03-06T02:45:03;5.00;99.90
32660;DHT22;19064;47.912;12.308;2024-03-06T02:47:30;4.90;99.90
32660;DHT22;19064;47.912;12.308;2024-03-06T02:49:56;4.80;99.90
32660;DHT22;19064;47.912;12.308;2024-03-06T02:52:23;4.80;99.90
32660;DHT22;19064;47.912;12.308;2024-03-06T02:54:51;4.90;99.90
32660;DHT22;19064;47.912;12.308;2024-03-06T02:57:18;4.80;99.90
32660;DHT22;19064;47.912;12.308;2024-03-06T02:59:44;4.90;99.90
32660;DHT22;19064;47.912;12.308;2024-03-06T03:02:11;4.90;99.90
32660;DHT22;19064;47.912;12.308;2024-03-06T03:04:38;4.80;99.90
32660;DHT22;19064;47.912;12.308;2024-03-06T03:07:05;4.80;99.90
32660;DHT22;19064;47.912;12.308;2024-03-06T03:09:32;4.90;99.90
32660;DHT22;19064;47.912;12.308;2024-03-06T03:12:00;4.90;99.90
32660;DHT22;19064;47.912;12.308;2024-03-06T03:14:26;4.80;99.90
32660;DHT22;19064;47.912;12.308;2024-03-06T03:16:53;4.90;99.90
32660;DHT22;19064;47.912;12.308;2024-03-06T03:19:20;4.90;99.90
32660;DHT22;19064;47.912;12.308;2024-03-06T03:21:47;4.90;99.90
32660;DHT22;19064;47.912;12.308;2024-03-06T03:24:13;4.80;99.90
32660;DHT22;19064;47.912;12.308;2024-03-06T03:26:40;4.80;99.90
32660;DHT22;19064;47.912;12.308;2024-03-06T03:29:08;4.80;99.90
32660;DHT22;19064;47.912;12.308;2024-03-06T03:31:35;4.70;99.90
32660;DHT22;19064;47.912;12.308;2024-03-06T03:34:04;4.70;99.90
32660;DHT22;19064;47.912;12.308;2024-03-06T03:36:30;4.70;99.90
32660;DHT22;19064;47.912;12.308;2024-03-06T03:38:58;4.60;99.90
32660;DHT22;19064;47.912;12.308;2024-03-06T03:41:25;4.60;99.90
32660;DHT22;19064;47.912;12.308;2024-03-06T03:43:52;4.60;99.90
32660;DHT22;19064;47.912;12.308;2024-03-06T03:46:20;4.70;99.90
32660;DHT22;19064;47.912;12.308;2024-03-06T03:48:46;4.80;99.90
32660;DHT22;19064;47.912;12.308;2024-03-06T03:51:13;4.70;99.90
32660;DHT22;19064;47.912;12.308;2024-03-06T03:53:40;4.70;99.90
32660;DHT22;19064;47.912;12.308;2024-03-06T03:56:07;4.70;99.90
32660;DHT22;19064;47.912;12.308;2024-03-06T03:58:33;4.60;99.90
32660;DHT22;19064;47.912;12.308;2024-03-06T04:01:00;4.60;99.90
32660;DHT22;19064;47.912;12.308;2024-03-06T04:03:29;4.60;99.90
32660;DHT22;19064;47.912;12.308;2024-03-06T04:05:55;4.60;99.90
32660;DHT22;19064;47.912;12.308;2024-03-06T04:08:22;4.50;99.90
32660;DHT22;19064;47.912;12.308;2024-03-06T04:10:49;4.60;99.90
32660;DHT22;19064;47.912;12.308;2024-03-06T04:13:16;4.60;99.90
32660;DHT22;19064;47.912;12.308;2024-03-06T04:15:45;4.60;99.90
32660;DHT22;19064;47.912;12.308;2024-03-06T04:18:11;4.60;99.90
32660;DHT22;19064;47.912;12.308;2024-03-06T04:20:39;4.50;99.90
32660;DHT22;19064;47.912;12.308;2024-03-06T04:23:06;4.50;99.90
32660;DHT22;19064;47.912;12.308;2024-03-06T04:25:33;4.60;99.90
32660;DHT22;19064;47.912;12.308;2024-03-06T04:28:00;4.50;99.90
32660;DHT22;19064;47.912;12.308;2024-03-06T04:30:27;4.50;99.90
32660;DHT22;19064;47.912;12.308;2024-03-06T04:32:54;4.50;99.90
32660;DHT22;19064;47.912;12.308;2024-03-06T04:35:21;4.50;99.90
32660;DHT22;19064;47.912;12.308;2024-03-06T04:37:49;4.40;99.90
32660;DHT22;19064;47.912;12.308;2024-03-06T04:40:16;4.40;99.90
32660;DHT22;19064;47.912;12.308;2024-03-06T04:42:45;4.40;99.90
32660;DHT22;19064;47.912;12.308;2024-03-06T04:45:14;4.40;99.90
32660;DHT22;19064;47.912;12.308;2024-03-06T04:47:41;4.40;99.90
32660;DHT22;19064;47.912;12.308;2024-03-06T04:50:09;4.40;99.90
32660;DHT22;19064;47.912;12.308;2024-03-06T04:52:36;4.40;99.90
32660;DHT22;19064;47.912;12.308;2024-03-06T04:55:05;4.40;99.90
32660;DHT22;19064;47.912;12.308;2024-03-06T04:57:34;4.30;99.90
32660;DHT22;19064;47.912;12.308;2024-03-06T05:00:01;4.40;99.90
32660;DHT22;19064;47.912;12.308;2024-03-06T05:02:31;4.50;99.90
32660;DHT22;19064;47.912;12.308;2024-03-06T05:04:59;4.50;99.90
32660;DHT22;19064;47.912;12.308;2024-03-06T05:07:27;4.40;99.90
32660;DHT22;19064;47.912;12.308;2024-03-06T05:09:54;4.40;99.90
32660;DHT22;19064;47.912;12.308;2024-03-06T05:12:22;4.40;99.90
32660;DHT22;19064;47.912;12.308;2024-03-06T05:14:49;4.30;99.90
32660;DHT22;19064;47.912;12.308;2024-03-06T05:17:16;4.30;99.90
32660;DHT22;19064;47.912;12.308;2024-03-06T05:19:43;4.30;99.90
32660;DHT22;19064;47.912;12.308;2024-03-06T05:22:10;4.30;99.90
32660;DHT22;19064;47.912;12.308;2024-03-06T05:24:37;4.30;99.90
32660;DHT22;19064;47.912;12.308;2024-03-06T05:27:04;4.20;99.90
32660;DHT22;19064;47.912;12.308;2024-03-06T05:29:33;4.30;99.90
32660;DHT22;19064;47.912;12.308;2024-03-06T05:32:02;4.20;99.90
32660;DHT22;19064;47.912;12.308;2024-03-06T05:34:29;4.30;99.90
32660;DHT22;19064;47.912;12.308;2024-03-06T05:36:56;4.20;99.90
32660;DHT22;19064;47.912;12.308;2024-03-06T05:39:23;4.20;99.90
32660;DHT22;19064;47.912;12.308;2024-03-06T05:41:50;4.20;99.90
32660;DHT22;19064;47.912;12.308;2024-03-06T05:44:16;4.20;99.90
32660;DHT22;19064;47.912;12.308;2024-03-06T05:46:45;4.20;99.90
32660;DHT22;19064;47.912;12.308;2024-03-06T05:49:12;4.20;99.90
32660;DHT22;19064;47.912;12.308;2024-03-06T05:51:39;4.20;99.90
32660;DHT22;19064;47.912;12.308;2024-03-06T05:54:06;4.20;99.90
32660;DHT22;19064;47.912;12.308;2024-03-06T05:56:33;4.20;99.90
32660;DHT22;19064;47.912;12.308;2024-03-06T05:59:00;4.20;99.90
32660;DHT22;19064;47.912;12.308;2024-03-06T06:01:30;4.30;99.90
32660;DHT22;19064;47.912;12.308;2024-03-06T06:03:58;4.20;99.90
32660;DHT22;19064;47.912;12.308;2024-03-06T06:06:26;4.20;99.90
32660;DHT22;19064;47.912;12.308;2024-03-06T06:08:52;4.30;99.90
32660;DHT22;19064;47.912;12.308;2024-03-06T06:11:19;4.30;99.90
32660;DHT22;19064;47.912;12.308;2024-03-06T06:13:46;4.30;99.90
32660;DHT22;19064;47.912;12.308;2024-03-06T06:16:13;4.30;99.90
32660;DHT22;19064;47.912;12.308;2024-03-06T06:18:40;4.20;99.90
32660;DHT22;19064;47.912;12.308;2024-03-06T06:21:09;4.20;99.90
32660;DHT22;19064;47.912;12.308;2024-03-06T06:23:35;4.20;99.90
32660;DHT22;19064;47.912;12.308;2024-03-06T06:26:02;4.20;99.90
32660;DHT22;19064;47.912;12.308;2024-03-06T06:28:29;4.20;99.90
32660;DHT22;19064;47.912;12.308;2024-03-06T06:30:56;4.30;99.90
32660;DHT22;19064;47.912;12.308;2024-03-06T06:33:22;4.30;99.90
32660;DHT22;19064;47.912;12.308;2024-03-06T06:35:49;4.30;99.90
32660;DHT22;19064;47.912;12.308;2024-03-06T06:38:18;4.20;99.90
32660;DHT22;19064;47.912;12.308;2024-03-06T06:40:45;4.20;99.90
32660;DHT22;19064;47.912;12.308;2024-03-06T06:43:13;4.20;99.90
32660;DHT22;19064;47.912;12.308;2024-03-06T06:45:40;4.20;99.90
32660;DHT22;19064;47.912;12.308;2024-03-06T06:48:07;4.20;99.90
32660;DHT22;19064;47.912;12.308;2024-03-06T06:50:35;4.20;99.90
32660;DHT22;19064;47.912;12.308;2024-03-06T06:53:02;4.20;99.90
32660;DHT22;19064;47.912;12.308;2024-03-06T06:55:30;4.30;99.90
32660;DHT22;19064;47.912;12.308;2024-03-06T06:57:57;4.30;99.90
32660;DHT22;19064;47.912;12.308;2024-03-06T07:00:24;4.20;99.90
32660;DHT22;19064;47.912;12.308;2024-03-06T07:02:51;4.20;99.90
32660;DHT22;19064;47.912;12.308;2024-03-06T07:05:18;4.20;99.90
32660;DHT22;19064;47.912;12.308;2024-03-06T07:07:44;4.20;99.90
32660;DHT22;19064;47.912;12.308;2024-03-06T07:10:11;4.20;99.90
32660;DHT22;19064;47.912;12.308;2024-03-06T07:12:39;4.20;99.90
32660;DHT22;19064;47.912;12.308;2024-03-06T07:15:06;4.20;99.90
32660;DHT22;19064;47.912;12.308;2024-03-06T07:17:33;4.20;99.90
32660;DHT22;19064;47.912;12.308;2024-03-06T07:20:00;4.20;99.90
32660;DHT22;19064;47.912;12.308;2024-03-06T07:22:27;4.20;99.90
32660;DHT22;19064;47.912;12.308;2024-03-06T07:24:53;4.20;99.90
32660;DHT22;19064;47.912;12.308;2024-03-06T07:27:20;4.20;99.90
32660;DHT22;19064;47.912;12.308;2024-03-06T07:29:49;4.20;99.90
32660;DHT22;19064;47.912;12.308;2024-03-06T07:32:15;4.20;99.90
32660;DHT22;19064;47.912;12.308;2024-03-06T07:34:43;4.20;99.90
32660;DHT22;19064;47.912;12.308;2024-03-06T07:37:10;4.10;99.90
32660;DHT22;19064;47.912;12.308;2024-03-06T07:39:37;4.10;99.90
32660;DHT22;19064;47.912;12.308;2024-03-06T07:42:04;4.10;99.90
32660;DHT22;19064;47.912;12.308;2024-03-06T07:44:31;4.10;99.90
32660;DHT22;19064;47.912;12.308;2024-03-06T07:46:59;4.20;99.90
32660;DHT22;19064;47.912;12.308;2024-03-06T07:49:26;4.20;99.90
32660;DHT22;19064;47.912;12.308;2024-03-06T07:51:53;4.20;99.90
32660;DHT22;19064;47.912;12.308;2024-03-06T07:54:20;4.20;99.90
32660;DHT22;19064;47.912;12.308;2024-03-06T07:56:47;4.20;99.90
32660;DHT22;19064;47.912;12.308;2024-03-06T07:59:14;4.20;99.90
32660;DHT22;19064;47.912;12.308;2024-03-06T08:01:43;4.30;99.90
32660;DHT22;19064;47.912;12.308;2024-03-06T08:04:11;4.20;99.90
32660;DHT22;19064;47.912;12.308;2024-03-06T08:06:39;4.20;99.90
32660;DHT22;19064;47.912;12.308;2024-03-06T08:09:06;4.20;99.90
32660;DHT22;19064;47.912;12.308;2024-03-06T08:11:34;4.20;99.90
32660;DHT22;19064;47.912;12.308;2024-03-06T08:14:01;4.20;99.90
32660;DHT22;19064;47.912;12.308;2024-03-06T08:16:28;4.20;99.90
32660;DHT22;19064;47.912;12.308;2024-03-06T08:18:55;4.20;99.90
32660;DHT22;19064;47.912;12.308;2024-03-06T08:21:23;4.20;99.90
32660;DHT22;19064;47.912;12.308;2024-03-06T08:23:50;4.30;99.90
32660;DHT22;19064;47.912;12.308;2024-03-06T08:26:18;4.30;99.90
32660;DHT22;19064;47.912;12.308;2024-03-06T08:28:45;4.20;99.90
32660;DHT22;19064;47.912;12.308;2024-03-06T08:31:12;4.30;99.90
32660;DHT22;19064;47.912;12.308;2024-03-06T08:33:38;4.20;99.90
32660;DHT22;19064;47.912;12.308;2024-03-06T08:36:05;4.20;99.90
32660;DHT22;19064;47.912;12.308;2024-03-06T08:38:33;4.20;99.90
32660;DHT22;19064;47.912;12.308;2024-03-06T08:41:00;4.20;99.90
32660;DHT22;19064;47.912;12.308;2024-03-06T08:43:27;4.20;99.90
32660;DHT22;19064;47.912;12.308;2024-03-06T08:45:53;4.20;99.90
32660;DHT22;19064;47.912;12.308;2024-03-06T08:48:21;4.20;99.90
32660;DHT22;19064;47.912;12.308;2024-03-06T08:50:48;4.20;99.90
32660;DHT22;19064;47.912;12.308;2024-03-06T08:53:16;4.30;99.90
32660;DHT22;19064;47.912;12.308;2024-03-06T08:55:44;4.30;99.90
32660;DHT22;19064;47.912;12.308;2024-03-06T08:58:11;4.30;99.90
32660;DHT22;19064;47.912;12.308;2024-03-06T09:00:39;4.30;99.90
32660;DHT22;19064;47.912;12.308;2024-03-06T09:03:06;4.30;99.90
32660;DHT22;19064;47.912;12.308;2024-03-06T09:05:32;4.40;99.90
32660;DHT22;19064;47.912;12.308;2024-03-06T09:07:59;4.40;99.90
32660;DHT22;19064;47.912;12.308;2024-03-06T09:10:26;4.40;99.90
32660;DHT22;19064;47.912;12.308;2024-03-06T09:12:54;4.40;99.90
32660;DHT22;19064;47.912;12.308;2024-03-06T09:15:21;4.40;99.90
32660;DHT22;19064;47.912;12.308;2024-03-06T09:17:48;4.40;99.90
32660;DHT22;19064;47.912;12.308;2024-03-06T09:20:15;4.40;99.90
32660;DHT22;19064;47.912;12.308;2024-03-06T09:22:42;4.40;99.90
32660;DHT22;19064;47.912;12.308;2024-03-06T09:25:09;4.40;99.90
32660;DHT22;19064;47.912;12.308;2024-03-06T09:27:37;4.40;99.90
32660;DHT22;19064;47.912;12.308;2024-03-06T09:30:07;4.40;99.90
32660;DHT22;19064;47.912;12.308;2024-03-06T09:32:34;4.40;99.90
32660;DHT22;19064;47.912;12.308;2024-03-06T09:35:01;4.40;99.90
32660;DHT22;19064;47.912;12.308;2024-03-06T09:37:28;4.40;99.90
32660;DHT22;19064;47.912;12.308;2024-03-06T09:39:55;4.40;99.90
32660;DHT22;19064;47.912;12.308;2024-03-06T09:42:22;4.30;99.90
32660;DHT22;19064;47.912;12.308;2024-03-06T09:44:49;4.30;99.90
32660;DHT22;19064;47.912;12.308;2024-03-06T09:47:20;4.30;99.90
32660;DHT22;19064;47.912;12.308;2024-03-06T09:49:49;4.30;99.90
32660;DHT22;19064;47.912;12.308;2024-03-06T09:52:16;4.30;99.90
32660;DHT22;19064;47.912;12.308;2024-03-06T09:54:43;4.30;99.90
32660;DHT22;19064;47.912;12.308;2024-03-06T09:57:10;4.30;99.90
32660;DHT22;19064;47.912;12.308;2024-03-06T09:59:38;4.30;99.90
32660;DHT22;19064;47.912;12.308;2024-03-06T10:02:23;4.30;99.90
32660;DHT22;19064;47.912;12.308;2024-03-06T10:04:54;4.40;99.90
32660;DHT22;19064;47.912;12.308;2024-03-06T10:07:21;4.40;99.90
32660;DHT22;19064;47.912;12.308;2024-03-06T10:09:47;4.50;99.90
32660;DHT22;19064;47.912;12.308;2024-03-06T10:12:17;4.50;99.90
32660;DHT22;19064;47.912;12.308;2024-03-06T10:14:49;4.50;99.90
32660;DHT22;19064;47.912;12.308;2024-03-06T10:17:20;4.50;99.90
32660;DHT22;19064;47.912;12.308;2024-03-06T10:19:49;4.50;99.90
32660;DHT22;19064;47.912;12.308;2024-03-06T10:22:17;4.50;99.90
32660;DHT22;19064;47.912;12.308;2024-03-06T10:24:44;4.50;99.90
32660;DHT22;19064;47.912;12.308;2024-03-06T10:27:15;4.50;99.90
32660;DHT22;19064;47.912;12.308;2024-03-06T10:29:43;4.60;99.90
32660;DHT22;19064;47.912;12.308;2024-03-06T10:32:09;4.60;99.90
32660;DHT22;19064;47.912;12.308;2024-03-06T10:34:38;4.60;99.90
32660;DHT22;19064;47.912;12.308;2024-03-06T10:37:06;4.50;99.90
32660;DHT22;19064;47.912;12.308;2024-03-06T10:39:33;4.60;99.90
32660;DHT22;19064;47.912;12.308;2024-03-06T10:42:02;4.70;99.90
32660;DHT22;19064;47.912;12.308;2024-03-06T10:44:32;4.70;99.90
32660;DHT22;19064;47.912;12.308;2024-03-06T10:47:02;4.60;99.90
32660;DHT22;19064;47.912;12.308;2024-03-06T10:49:30;4.50;99.90
32660;DHT22;19064;47.912;12.308;2024-03-06T10:52:00;4.50;99.90
32660;DHT22;19064;47.912;12.308;2024-03-06T10:54:28;4.50;99.90
32660;DHT22;19064;47.912;12.308;2024-03-06T10:56:56;4.50;99.90
32660;DHT22;19064;47.912;12.308;2024-03-06T10:59:25;4.50;99.90
32660;DHT22;19064;47.912;12.308;2024-03-06T11:01:54;4.50;99.90
32660;DHT22;19064;47.912;12.308;2024-03-06T11:04:24;4.60;99.90
32660;DHT22;19064;47.912;12.308;2024-03-06T11:06:51;4.60;99.90
32660;DHT22;19064;47.912;12.308;2024-03-06T11:09:20;4.60;99.90
32660;DHT22;19064;47.912;12.308;2024-03-06T11:11:48;4.60;99.90
32660;DHT22;19064;47.912;12.308;2024-03-06T11:14:15;4.70;99.90
32660;DHT22;19064;47.912;12.308;2024-03-06T11:16:58;4.60;99.90
32660;DHT22;19064;47.912;12.308;2024-03-06T11:19:26;4.70;99.90
32660;DHT22;19064;47.912;12.308;2024-03-06T11:21:53;4.70;99.90
32660;DHT22;19064;47.912;12.308;2024-03-06T11:24:24;4.80;99.90
32660;DHT22;19064;47.912;12.308;2024-03-06T11:26:59;4.80;99.90
32660;DHT22;19064;47.912;12.308;2024-03-06T11:29:28;4.80;99.90
32660;DHT22;19064;47.912;12.308;2024-03-06T11:32:06;4.70;99.90
32660;DHT22;19064;47.912;12.308;2024-03-06T11:34:34;4.70;99.90
32660;DHT22;19064;47.912;12.308;2024-03-06T11:37:04;4.70;99.90
32660;DHT22;19064;47.912;12.308;2024-03-06T11:39:37;4.70;99.90
32660;DHT22;19064;47.912;12.308;2024-03-06T11:42:04;4.80;99.90
32660;DHT22;19064;47.912;12.308;2024-03-06T11:44:34;4.80;99.90
32660;DHT22;19064;47.912;12.308;2024-03-06T11:47:02;4.70;99.90
32660;DHT22;19064;47.912;12.308;2024-03-06T11:49:31;4.70;99.90
32660;DHT22;19064;47.912;12.308;2024-03-06T11:52:00;4.70;99.90
32660;DHT22;19064;47.912;12.308;2024-03-06T11:54:29;4.70;99.90
32660;DHT22;19064;47.912;12.308;2024-03-06T11:56:59;4.70;99.90
32660;DHT22;19064;47.912;12.308;2024-03-06T11:59:27;4.70;99.90
32660;DHT22;19064;47.912;12.308;2024-03-06T12:01:55;4.70;99.90
32660;DHT22;19064;47.912;12.308;2024-03-06T12:04:22;4.70;99.90
32660;DHT22;19064;47.912;12.308;2024-03-06T12:06:49;4.80;99.90
32660;DHT22;19064;47.912;12.308;2024-03-06T12:09:17;4.80;99.90
32660;DHT22;19064;47.912;12.308;2024-03-06T12:11:44;4.80;99.90
32660;DHT22;19064;47.912;12.308;2024-03-06T12:14:17;4.80;99.90
32660;DHT22;19064;47.912;12.308;2024-03-06T12:16:54;4.70;99.90
32660;DHT22;19064;47.912;12.308;2024-03-06T12:19:22;4.70;99.90
32660;DHT22;19064;47.912;12.308;2024-03-06T12:21:50;4.80;99.90
32660;DHT22;19064;47.912;12.308;2024-03-06T12:24:17;4.80;99.90
32660;DHT22;19064;47.912;12.308;2024-03-06T12:26:44;4.90;99.90
32660;DHT22;19064;47.912;12.308;2024-03-06T12:29:11;4.90;99.90
32660;DHT22;19064;47.912;12.308;2024-03-06T12:31:42;4.90;99.90
32660;DHT22;19064;47.912;12.308;2024-03-06T12:34:13;4.80;99.90
32660;DHT22;19064;47.912;12.308;2024-03-06T12:36:40;4.90;99.90
32660;DHT22;19064;47.912;12.308;2024-03-06T12:39:07;4.90;99.90
32660;DHT22;19064;47.912;12.308;2024-03-06T12:41:38;4.90;99.90
32660;DHT22;19064;47.912;12.308;2024-03-06T12:44:05;4.90;99.90
32660;DHT22;19064;47.912;12.308;2024-03-06T12:46:33;4.90;99.90
32660;DHT22;19064;47.912;12.308;2024-03-06T12:49:01;4.80;99.90
32660;DHT22;19064;47.912;12.308;2024-03-06T12:51:28;4.80;99.90
32660;DHT22;19064;47.912;12.308;2024-03-06T12:53:54;4.90;99.90
32660;DHT22;19064;47.912;12.308;2024-03-06T12:56:21;4.80;99.90
32660;DHT22;19064;47.912;12.308;2024-03-06T12:58:48;4.80;99.90
32660;DHT22;19064;47.912;12.308;2024-03-06T13:01:15;4.80;99.90
32660;DHT22;19064;47.912;12.308;2024-03-06T13:03:41;4.80;99.90
32660;DHT22;19064;47.912;12.308;2024-03-06T13:06:09;4.80;99.90
32660;DHT22;19064;47.912;12.308;2024-03-06T13:08:37;4.80;99.90
32660;DHT22;19064;47.912;12.308;2024-03-06T13:11:03;4.80;99.90
32660;DHT22;19064;47.912;12.308;2024-03-06T13:13:30;4.80;99.90
32660;DHT22;19064;47.912;12.308;2024-03-06T13:15:59;4.70;99.90
32660;DHT22;19064;47.912;12.308;2024-03-06T13:18:26;4.60;99.90
32660;DHT22;19064;47.912;12.308;2024-03-06T13:20:52;4.60;99.90
32660;DHT22;19064;47.912;12.308;2024-03-06T13:23:21;4.50;99.90
32660;DHT22;19064;47.912;12.308;2024-03-06T13:25:49;4.60;99.90
32660;DHT22;19064;47.912;12.308;2024-03-06T13:28:16;4.60;99.90
32660;DHT22;19064;47.912;12.308;2024-03-06T13:30:42;4.60;99.90
32660;DHT22;19064;47.912;12.308;2024-03-06T13:33:09;4.70;99.90
32660;DHT22;19064;47.912;12.308;2024-03-06T13:35:36;4.70;99.90
32660;DHT22;19064;47.912;12.308;2024-03-06T13:38:03;4.70;99.90
32660;DHT22;19064;47.912;12.308;2024-03-06T13:40:31;4.70;99.90
32660;DHT22;19064;47.912;12.308;2024-03-06T13:42:58;4.70;99.90
32660;DHT22;19064;47.912;12.308;2024-03-06T13:45:25;4.60;99.90
32660;DHT22;19064;47.912;12.308;2024-03-06T13:47:52;4.60;99.90
32660;DHT22;19064;47.912;12.308;2024-03-06T13:50:18;4.70;99.90
32660;DHT22;19064;47.912;12.308;2024-03-06T13:52:47;4.70;99.90
32660;DHT22;19064;47.912;12.308;2024-03-06T13:55:14;4.70;99.90
32660;DHT22;19064;47.912;12.308;2024-03-06T13:57:42;4.70;99.90
32660;DHT22;19064;47.912;12.308;2024-03-06T14:00:11;4.70;99.90
32660;DHT22;19064;47.912;12.308;2024-03-06T14:02:42;4.70;99.90
32660;DHT22;19064;47.912;12.308;2024-03-06T14:05:09;4.70;99.90
32660;DHT22;19064;47.912;12.308;2024-03-06T14:07:35;4.70;99.90
32660;DHT22;19064;47.912;12.308;2024-03-06T14:10:03;4.70;99.90
32660;DHT22;19064;47.912;12.308;2024-03-06T14:12:29;4.70;99.90
32660;DHT22;19064;47.912;12.308;2024-03-06T14:14:57;4.70;99.90
32660;DHT22;19064;47.912;12.308;2024-03-06T14:17:24;4.60;99.90
32660;DHT22;19064;47.912;12.308;2024-03-06T14:19:51;4.70;99.90
32660;DHT22;19064;47.912;12.308;2024-03-06T14:22:18;4.70;99.90
32660;DHT22;19064;47.912;12.308;2024-03-06T14:24:44;4.70;99.90
32660;DHT22;19064;47.912;12.308;2024-03-06T14:27:11;4.70;99.90
32660;DHT22;19064;47.912;12.308;2024-03-06T14:29:38;4.60;99.90
32660;DHT22;19064;47.912;12.308;2024-03-06T14:32:07;4.70;99.90
32660;DHT22;19064;47.912;12.308;2024-03-06T14:34:34;4.80;99.90
32660;DHT22;19064;47.912;12.308;2024-03-06T14:37:01;4.70;99.90
32660;DHT22;19064;47.912;12.308;2024-03-06T14:39:28;4.70;99.90
32660;DHT22;19064;47.912;12.308;2024-03-06T14:41:55;4.70;99.90
32660;DHT22;19064;47.912;12.308;2024-03-06T14:44:21;4.70;99.90
32660;DHT22;19064;47.912;12.308;2024-03-06T14:46:48;4.70;99.90
32660;DHT22;19064;47.912;12.308;2024-03-06T14:49:16;4.60;99.90
32660;DHT22;19064;47.912;12.308;2024-03-06T14:51:43;4.60;99.90
32660;DHT22;19064;47.912;12.308;2024-03-06T14:54:10;4.60;99.90
32660;DHT22;19064;47.912;12.308;2024-03-06T14:56:36;4.60;99.90
32660;DHT22;19064;47.912;12.308;2024-03-06T14:59:03;4.60;99.90
32660;DHT22;19064;47.912;12.308;2024-03-06T15:01:30;4.60;99.90
32660;DHT22;19064;47.912;12.308;2024-03-06T15:03:57;4.60;99.90
32660;DHT22;19064;47.912;12.308;2024-03-06T15:06:26;4.60;99.90
32660;DHT22;19064;47.912;12.308;2024-03-06T15:08:52;4.70;99.90
32660;DHT22;19064;47.912;12.308;2024-03-06T15:11:19;4.70;99.90
32660;DHT22;19064;47.912;12.308;2024-03-06T15:13:47;4.70;99.90
32660;DHT22;19064;47.912;12.308;2024-03-06T15:16:14;4.80;99.90
32660;DHT22;19064;47.912;12.308;2024-03-06T15:18:41;4.80;99.90
32660;DHT22;19064;47.912;12.308;2024-03-06T15:21:09;4.80;99.90
32660;DHT22;19064;47.912;12.308;2024-03-06T15:23:38;4.70;99.90
32660;DHT22;19064;47.912;12.308;2024-03-06T15:26:05;4.70;99.90
32660;DHT22;19064;47.912;12.308;2024-03-06T15:28:32;4.70;99.90
32660;DHT22;19064;47.912;12.308;2024-03-06T15:30:58;4.60;99.90